Time;durP1;ratioP1;P1;durP2;ratioP2;P2;SDS_P1;SDS_P2;PMS_P1;PMS_P2;Temp;Humidity;BMP_temperature;BMP_pressure;BME280_temperature;BME280_humidity;BME280_pressure;Samples;Min_cycle;Max_cycle;Signal;HPM_P1;HPM_P2
2021/11/11 00:00:55;;;;;;;37.57;32.70;;;2.50;1.00;4.40;101221.00;;;;5015839;28;20483;-77
2021/11/11 00:03:24;;;;;;;42.13;37.30;;;2.50;1.00;4.40;101191.00;;;;5018543;28;20519;-78
2021/11/11 00:05:53;;;;;;;45.10;40.23;;;2.50;1.00;4.40;101235.00;;;;5033934;28;20473;-77
2021/11/11 00:08:21;;;;;;;39.27;34.97;;;2.50;1.00;4.30;101212.00;;;;5030301;28;20470;-78
2021/11/11 00:10:51;;;;;;;43.07;35.73;;;2.40;1.00;4.30;101238.00;;;;5019507;28;20561;-79
2021/11/11 00:13:20;;;;;;;42.07;37.43;;;2.30;1.00;4.30;101184.00;;;;5016841;28;20493;-77
2021/11/11 00:15:49;;;;;;;37.80;33.93;;;2.30;1.00;4.30;101237.00;;;;5017572;28;20477;-78
2021/11/11 00:18:18;;;;;;;38.10;33.90;;;2.20;1.00;4.20;101253.00;;;;5051943;28;20460;-77
2021/11/11 00:20:49;;;;;;;38.17;34.00;;;2.40;1.00;4.30;101244.00;;;;5033940;28;20522;-77
2021/11/11 00:23:17;;;;;;;36.10;31.93;;;2.20;1.00;4.30;101249.00;;;;5029792;28;20537;-78
2021/11/11 00:25:46;;;;;;;37.77;33.50;;;2.20;1.00;4.30;101244.00;;;;5030837;28;20521;-75
2021/11/11 00:28:16;;;;;;;38.00;32.60;;;2.20;1.00;4.30;101181.00;;;;5031936;28;20467;-78
2021/11/11 00:30:44;;;;;;;36.03;32.23;;;2.20;1.00;4.30;101253.00;;;;5008421;28;20485;-78
2021/11/11 00:33:12;;;;;;;35.80;31.97;;;2.10;1.00;4.20;101209.00;;;;5015224;28;20458;-78
2021/11/11 00:35:41;;;;;;;37.23;33.17;;;2.10;1.00;4.20;101239.00;;;;5019440;28;20477;-78
2021/11/11 00:38:10;;;;;;;36.23;32.33;;;2.20;1.00;4.20;101249.00;;;;5023495;28;20522;-78
2021/11/11 00:40:40;;;;;;;37.33;32.17;;;2.20;1.00;4.20;101242.00;;;;5023892;28;20493;-78
2021/11/11 00:43:09;;;;;;;35.47;31.67;;;2.20;1.00;4.20;101235.00;;;;5014829;28;21035;-80
2021/11/11 00:45:40;;;;;;;37.83;33.60;;;2.20;1.00;3.80;100907.00;;;;5029189;28;20503;-78
2021/11/11 00:48:09;;;;;;;40.30;33.47;;;2.20;1.00;4.20;101161.00;;;;5016063;28;20450;-79
2021/11/11 00:50:38;;;;;;;36.43;32.57;;;2.10;1.00;4.20;101207.00;;;;5016095;28;20473;-78
2021/11/11 00:53:07;;;;;;;35.00;31.50;;;2.10;1.00;4.20;101162.00;;;;5018585;28;20461;-78
2021/11/11 00:55:35;;;;;;;35.67;32.00;;;2.00;1.00;4.20;101230.00;;;;5019317;28;20906;-78
2021/11/11 00:58:27;;;;;;;35.40;31.70;;;2.10;1.00;4.20;101225.00;;;;5027513;28;20898;-79
2021/11/11 01:00:57;;;;;;;34.53;30.83;;;2.00;1.00;4.10;101239.00;;;;5027344;28;20568;-78
2021/11/11 01:03:33;;;;;;;35.20;31.70;;;2.00;1.00;4.20;101213.00;;;;5025966;28;20505;-78
2021/11/11 01:06:02;;;;;;;37.07;31.53;;;2.00;1.00;4.10;101225.00;;;;5019557;28;20450;-76
2021/11/11 01:08:31;;;;;;;34.90;31.27;;;2.00;1.00;4.10;101210.00;;;;5019579;28;20450;-76
2021/11/11 01:11:02;;;;;;;34.17;30.57;;;2.00;1.00;4.10;101237.00;;;;5010595;28;20480;-78
2021/11/11 01:13:30;;;;;;;35.47;31.70;;;1.90;1.00;4.10;101253.00;;;;5019931;28;20823;-77
2021/11/11 01:16:02;;;;;;;35.57;31.87;;;1.90;1.00;4.00;101213.00;;;;5018729;28;20508;-77
2021/11/11 01:18:31;;;;;;;33.70;30.10;;;1.90;1.00;4.00;101248.00;;;;5019943;28;20457;-77
2021/11/11 01:21:00;;;;;;;34.80;31.10;;;1.90;1.00;4.00;101231.00;;;;5023140;28;20564;-77
2021/11/11 01:23:28;;;;;;;33.90;30.60;;;1.80;1.00;3.90;101249.00;;;;5023414;28;20454;-78
2021/11/11 01:25:57;;;;;;;34.90;31.17;;;1.80;1.00;3.90;101216.00;;;;5025670;28;20462;-79
2021/11/11 01:28:29;;;;;;;38.17;31.20;;;1.70;1.00;3.90;101259.00;;;;5055529;28;20464;-78
2021/11/11 01:31:01;;;;;;;32.50;29.00;;;1.70;1.00;3.90;101176.00;;;;5025925;28;20496;-78
2021/11/11 01:33:36;;;;;;;33.73;30.13;;;1.70;1.00;3.90;101234.00;;;;5015129;28;20537;-79
2021/11/11 01:36:06;;;;;;;36.73;32.93;;;1.70;1.00;3.90;101259.00;;;;5020943;28;20468;-79
2021/11/11 01:38:55;;;;;;;34.57;30.90;;;1.70;1.00;3.90;101237.00;;;;5018845;28;20453;-79
2021/11/11 01:41:33;;;;;;;34.77;30.97;;;1.70;1.00;3.80;101233.00;;;;5009425;28;20500;-78
2021/11/11 01:44:03;;;;;;;31.83;28.30;;;1.80;1.00;3.90;101193.00;;;;5013063;28;20451;-80
2021/11/11 01:46:34;;;;;;;35.30;31.70;;;1.80;1.00;3.80;101209.00;;;;5019985;28;20452;-78
2021/11/11 01:49:03;;;;;;;36.70;32.63;;;1.90;1.00;3.60;101204.00;;;;5037815;28;20651;-78
2021/11/11 01:51:33;;;;;;;38.30;34.03;;;2.00;1.00;3.70;101218.00;;;;5050352;28;20492;-77
2021/11/11 01:54:05;;;;;;;36.57;32.67;;;2.00;1.00;3.70;101240.00;;;;5047078;28;20468;-78
2021/11/11 01:56:34;;;;;;;35.00;31.40;;;2.00;1.00;3.80;101176.00;;;;5044377;28;20465;-78
2021/11/11 01:59:24;;;;;;;33.07;29.60;;;2.00;1.00;3.90;101209.00;;;;5035846;28;20477;-76
2021/11/11 02:01:56;;;;;;;34.83;31.10;;;1.90;1.00;3.90;101197.00;;;;5027291;28;20470;-79
2021/11/11 02:04:30;;;;;;;37.63;33.03;;;1.90;1.00;3.80;101216.00;;;;5032625;28;20485;-78
2021/11/11 02:07:01;;;;;;;35.93;32.10;;;1.90;1.00;3.90;101225.00;;;;5027030;28;20481;-78
2021/11/11 02:09:37;;;;;;;32.07;28.57;;;1.90;1.00;3.90;101216.00;;;;5044448;28;20481;-78
2021/11/11 02:12:15;;;;;;;34.00;30.40;;;1.90;1.00;3.90;101199.00;;;;5044819;28;20479;-78
2021/11/11 02:14:58;;;;;;;39.30;32.37;;;1.80;1.00;3.70;101221.00;;;;5047487;28;20477;-78
2021/11/11 02:17:32;;;;;;;34.97;31.17;;;1.80;1.00;3.80;101196.00;;;;5032780;28;20471;-78
2021/11/11 02:20:17;;;;;;;36.53;31.53;;;1.90;1.00;3.80;101218.00;;;;5052987;28;22306;-79
2021/11/11 02:23:07;;;;;;;36.30;30.33;;;1.70;1.00;3.80;101210.00;;;;5029567;28;20525;-78
2021/11/11 02:25:58;;;;;;;37.13;33.20;;;1.60;1.00;3.70;101205.00;;;;5023249;28;20545;-77
2021/11/11 02:28:37;;;;;;;40.17;34.80;;;1.50;1.00;3.60;101204.00;;;;5044168;28;20458;-78
2021/11/11 02:31:06;;;;;;;36.00;30.53;;;1.50;1.00;3.60;101208.00;;;;5032570;28;21100;-78
2021/11/11 02:33:39;;;;;;;33.27;29.77;;;1.50;1.00;3.60;101201.00;;;;5015844;28;20469;-77
2021/11/11 02:36:14;;;;;;;32.33;28.80;;;1.60;1.00;3.60;101217.00;;;;5014984;28;21449;-77
2021/11/11 02:38:43;;;;;;;35.93;31.93;;;1.60;1.00;3.60;101203.00;;;;5031776;28;20468;-77
2021/11/11 02:41:12;;;;;;;35.70;30.57;;;1.50;1.00;3.60;101199.00;;;;5017452;28;20482;-78
2021/11/11 02:43:40;;;;;;;39.93;35.27;;;1.40;1.00;3.60;101245.00;;;;5016872;28;20457;-78
2021/11/11 02:46:15;;;;;;;40.87;33.17;;;1.40;1.00;3.60;101248.00;;;;5017469;28;20518;-80
2021/11/11 02:48:43;;;;;;;34.43;30.70;;;1.50;1.00;3.40;101203.00;;;;5015883;28;20453;-79
2021/11/11 02:51:13;;;;;;;39.20;33.23;;;1.50;1.00;3.60;101196.00;;;;5016114;28;21014;-77
2021/11/11 02:53:43;;;;;;;37.97;32.07;;;1.50;1.00;3.60;101200.00;;;;5018059;28;20460;-77
2021/11/11 02:56:11;;;;;;;36.13;32.23;;;1.50;1.00;3.60;101200.00;;;;5015826;28;20873;-78
2021/11/11 02:58:44;;;;;;;33.70;30.20;;;1.40;1.00;3.60;101224.00;;;;5016260;28;20462;-78
2021/11/11 03:01:13;;;;;;;45.53;40.27;;;1.40;1.00;3.50;101211.00;;;;5014981;28;21074;-79
2021/11/11 03:03:43;;;;;;;43.83;39.23;;;1.40;1.00;3.30;101232.00;;;;5005877;28;20902;-75
2021/11/11 03:06:14;;;;;;;53.67;42.90;;;1.40;1.00;3.50;101220.00;;;;5022703;28;20460;-78
2021/11/11 03:08:46;;;;;;;54.10;45.57;;;1.40;1.00;3.40;101205.00;;;;5013473;28;20452;-78
2021/11/11 03:11:14;;;;;;;54.03;48.00;;;1.40;1.00;3.50;101187.00;;;;5021292;28;20480;-76
2021/11/11 03:13:57;;;;;;;52.20;45.10;;;1.40;1.00;3.40;101205.00;;;;5030891;28;20456;-76
2021/11/11 03:16:26;;;;;;;55.83;49.97;;;1.40;1.00;3.50;101216.00;;;;5012559;28;20847;-78
2021/11/11 03:18:56;;;;;;;55.03;49.47;;;1.40;1.00;3.50;101219.00;;;;5011536;28;20457;-78
2021/11/11 03:21:26;;;;;;;55.83;49.93;;;1.40;1.00;3.50;101221.00;;;;5013606;28;20568;-77
2021/11/11 03:23:54;;;;;;;46.50;41.57;;;1.50;1.00;3.60;101190.00;;;;5012275;28;20460;-78
2021/11/11 03:26:27;;;;;;;47.10;42.33;;;1.50;1.00;3.60;101211.00;;;;5021989;28;20461;-78
2021/11/11 03:28:56;;;;;;;47.30;42.37;;;1.60;1.00;3.60;101190.00;;;;5015050;28;20472;-78
2021/11/11 03:31:36;;;;;;;50.27;44.70;;;1.50;1.00;3.70;101117.00;;;;5017575;28;20504;-78
2021/11/11 03:34:05;;;;;;;44.40;39.77;;;1.50;1.00;3.70;101190.00;;;;5018939;28;20875;-79
2021/11/11 03:36:35;;;;;;;43.47;38.77;;;1.50;1.00;3.70;101192.00;;;;5022831;28;20496;-79
2021/11/11 03:39:06;;;;;;;43.47;38.93;;;1.50;1.00;3.70;101211.00;;;;5024448;28;20460;-78
2021/11/11 03:41:35;;;;;;;42.17;37.70;;;1.50;1.00;3.70;101207.00;;;;5013416;28;20470;-77
2021/11/11 03:44:05;;;;;;;39.43;35.23;;;1.60;1.00;3.70;101171.00;;;;5012737;28;20457;-77
2021/11/11 03:46:33;;;;;;;38.30;34.00;;;1.60;1.00;3.70;101197.00;;;;5010643;28;20832;-77
2021/11/11 03:49:02;;;;;;;40.60;36.17;;;1.70;1.00;3.70;101164.00;;;;5010682;28;20834;-77
2021/11/11 03:51:30;;;;;;;36.03;32.33;;;1.70;1.00;3.80;101241.00;;;;5003494;28;20473;-77
2021/11/11 03:54:01;;;;;;;74.97;45.90;;;1.70;1.00;3.80;101227.00;;;;5019729;28;20613;-76
2021/11/11 03:56:29;;;;;;;39.67;34.00;;;1.70;1.00;3.80;101244.00;;;;5020434;28;20473;-77
2021/11/11 03:58:59;;;;;;;38.87;33.90;;;1.60;1.00;3.80;101193.00;;;;5013604;28;20517;-77
2021/11/11 04:01:31;;;;;;;51.87;37.63;;;1.60;1.00;3.80;101173.00;;;;5032032;28;20469;-77
2021/11/11 04:04:01;;;;;;;43.63;35.37;;;1.70;1.00;3.90;101233.00;;;;5030039;28;20461;-77
2021/11/11 04:06:29;;;;;;;46.87;37.00;;;1.70;1.00;3.90;101198.00;;;;5029542;28;20456;-77
2021/11/11 04:08:59;;;;;;;51.17;38.17;;;1.70;1.00;3.90;101209.00;;;;5020411;28;20526;-78
2021/11/11 04:11:33;;;;;;;54.43;37.80;;;1.70;1.00;3.90;101213.00;;;;5029719;28;20480;-77
2021/11/11 04:14:03;;;;;;;114.30;49.03;;;1.60;1.00;3.90;101224.00;;;;5036019;28;20452;-77
2021/11/11 04:16:33;;;;;;;41.57;33.03;;;1.60;1.00;3.90;101218.00;;;;5029579;28;21174;-78
2021/11/11 04:19:01;;;;;;;35.47;30.27;;;1.60;1.00;3.90;101212.00;;;;5023023;28;20462;-78
2021/11/11 04:21:30;;;;;;;66.50;42.47;;;1.60;1.00;3.80;101210.00;;;;5023290;28;20477;-78
2021/11/11 04:23:59;;;;;;;58.57;41.83;;;1.70;1.00;3.70;101198.00;;;;5022404;28;21270;-78
2021/11/11 04:26:30;;;;;;;82.63;43.27;;;1.80;1.00;3.70;101191.00;;;;5028065;28;20471;-79
2021/11/11 04:29:05;;;;;;;43.03;33.63;;;1.80;1.00;3.70;101217.00;;;;5031053;28;20540;-78
2021/11/11 04:31:37;;;;;;;68.73;42.87;;;1.80;1.00;3.60;101215.00;;;;5028659;28;20589;-77
2021/11/11 04:34:10;;;;;;;46.50;37.30;;;1.70;1.00;3.50;101213.00;;;;5062631;28;20445;-77
2021/11/11 04:37:03;;;;;;;39.00;32.03;;;1.70;1.00;3.50;101126.00;;;;5032431;28;20525;-78
2021/11/11 04:40:12;;;;;;;43.20;34.33;;;1.60;1.00;3.40;101206.00;;;;5040566;28;20882;-77
2021/11/11 04:51:24;;;;;;;65.30;36.67;;;1.60;1.00;3.10;101218.00;;;;5038277;28;21591;-78
2021/11/11 04:59:45;;;;;;;27.50;24.77;;;1.40;1.00;3.40;101208.00;;;;5026465;28;20485;-78
2021/11/11 05:02:39;;;;;;;30.20;27.00;;;1.50;1.00;3.50;101213.00;;;;5008806;28;20475;-80
2021/11/11 05:05:08;;;;;;;27.87;24.97;;;1.50;1.00;3.60;101222.00;;;;5024805;28;20879;-78
2021/11/11 05:07:38;;;;;;;27.87;25.03;;;1.50;1.00;3.60;101212.00;;;;5025202;28;20453;-79
2021/11/11 05:10:10;;;;;;;26.87;24.17;;;1.60;1.00;3.70;101194.00;;;;5016200;28;20783;-77
2021/11/11 05:12:39;;;;;;;27.07;24.40;;;1.70;1.00;3.70;101230.00;;;;5014486;28;20523;-78
2021/11/11 05:15:08;;;;;;;30.27;26.97;;;1.80;1.00;3.80;101213.00;;;;5016159;28;20466;-79
2021/11/11 05:17:41;;;;;;;31.13;27.83;;;1.90;1.00;3.90;101165.00;;;;5015092;28;20997;-78
2021/11/11 05:20:12;;;;;;;37.00;30.63;;;1.90;1.00;3.90;101191.00;;;;5023536;28;20476;-77
2021/11/11 05:22:41;;;;;;;36.10;28.57;;;1.90;1.00;4.00;101220.00;;;;5018779;28;20572;-78
2021/11/11 05:25:11;;;;;;;42.93;32.77;;;1.90;1.00;4.10;101224.00;;;;5018242;28;20453;-78
2021/11/11 05:27:43;;;;;;;51.43;32.23;;;2.00;1.00;4.10;101208.00;;;;5014890;28;20457;-77
2021/11/11 05:30:18;;;;;;;51.63;33.23;;;2.00;1.00;4.20;101202.00;;;;5016292;28;21163;-78
2021/11/11 05:32:50;;;;;;;66.87;38.00;;;2.00;1.00;3.80;101178.00;;;;5015115;28;21036;-79
2021/11/11 05:35:22;;;;;;;57.50;35.80;;;2.00;1.00;4.00;101206.00;;;;5018176;28;20483;-77
2021/11/11 05:37:51;;;;;;;82.10;39.20;;;2.00;1.00;4.00;101187.00;;;;5014984;28;20484;-78
2021/11/11 05:40:21;;;;;;;55.43;36.40;;;1.90;1.00;4.00;101220.00;;;;5014967;28;21425;-78
2021/11/11 05:42:55;;;;;;;37.23;29.10;;;1.90;1.00;4.10;101224.00;;;;5016533;28;20453;-79
2021/11/11 05:45:26;;;;;;;32.93;27.50;;;2.00;1.00;4.10;101237.00;;;;5024475;28;20463;-78
2021/11/11 05:47:59;;;;;;;27.97;22.93;;;2.00;1.00;4.10;101236.00;;;;5015745;28;20464;-79
2021/11/11 05:50:31;;;;;;;27.37;24.43;;;2.00;1.00;4.00;101252.00;;;;5015102;28;20488;-79
2021/11/11 05:53:00;;;;;;;30.13;25.03;;;1.90;1.00;4.00;101248.00;;;;5012419;28;20493;-79
2021/11/11 05:55:29;;;;;;;28.47;25.50;;;1.90;1.00;4.00;101241.00;;;;5016147;28;20454;-78
2021/11/11 05:57:58;;;;;;;55.50;32.47;;;1.80;1.00;3.90;101215.00;;;;5015133;28;20527;-80
2021/11/11 06:00:28;;;;;;;80.37;36.30;;;1.90;1.00;3.90;101254.00;;;;5015140;28;20489;-80
2021/11/11 06:03:09;;;;;;;49.43;32.43;;;1.80;1.00;3.90;101253.00;;;;5023011;28;20522;-79
2021/11/11 06:05:38;;;;;;;75.50;37.30;;;1.80;1.00;3.90;101255.00;;;;5014016;28;20468;-78
2021/11/11 06:08:11;;;;;;;135.97;44.70;;;1.80;1.00;3.90;101267.00;;;;5015707;28;20457;-78
2021/11/11 06:10:40;;;;;;;115.87;44.60;;;1.80;1.00;3.90;101268.00;;;;5017147;28;20472;-78
2021/11/11 06:13:08;;;;;;;79.17;38.20;;;1.80;1.00;4.00;101274.00;;;;5014898;28;20458;-78
2021/11/11 06:15:37;;;;;;;100.60;41.47;;;1.80;1.00;4.00;101264.00;;;;5017864;28;20460;-78
2021/11/11 06:18:10;;;;;;;85.03;37.30;;;2.00;1.00;4.00;101282.00;;;;5024978;28;20572;-78
2021/11/11 06:20:43;;;;;;;154.73;49.67;;;1.80;1.00;4.00;101281.00;;;;5018331;28;20545;-77
2021/11/11 06:23:13;;;;;;;165.73;49.40;;;1.90;1.00;4.10;101263.00;;;;5021181;28;20453;-79
2021/11/11 06:25:43;;;;;;;72.83;37.80;;;1.90;1.00;4.20;101261.00;;;;5016224;28;20460;-77
2021/11/11 06:28:12;;;;;;;87.43;40.33;;;2.00;1.00;4.20;101225.00;;;;5013348;28;20453;-78
2021/11/11 06:30:40;;;;;;;50.47;33.77;;;2.00;1.00;4.30;101259.00;;;;5013207;28;20473;-78
2021/11/11 06:33:16;;;;;;;35.00;30.10;;;2.10;1.00;4.40;101260.00;;;;5007021;28;20550;-78
2021/11/11 06:35:45;;;;;;;53.53;32.07;;;2.20;1.00;4.50;101258.00;;;;5015778;28;21290;-79
2021/11/11 06:38:14;;;;;;;59.40;32.17;;;2.30;1.00;4.50;101270.00;;;;5021335;28;20489;-78
2021/11/11 06:40:43;;;;;;;41.47;29.80;;;2.20;1.00;4.60;101262.00;;;;5015947;28;20479;-80
2021/11/11 06:43:11;;;;;;;58.63;34.03;;;2.30;1.00;4.50;101240.00;;;;5029204;28;20885;-78
2021/11/11 06:45:42;;;;;;;317.87;68.23;;;2.30;1.00;4.50;101284.00;;;;5017981;28;20457;-78
2021/11/11 06:48:11;;;;;;;133.87;43.77;;;2.20;1.00;4.40;101262.00;;;;5014402;28;20450;-79
2021/11/11 06:50:43;;;;;;;132.97;42.90;;;2.20;1.00;4.40;101255.00;;;;5023888;28;21289;-78
2021/11/11 06:53:14;;;;;;;254.63;52.27;;;2.20;1.00;4.50;101259.00;;;;5022293;28;20458;-78
2021/11/11 06:55:43;;;;;;;159.67;42.67;;;2.20;1.00;4.40;101293.00;;;;5022466;28;20509;-78
2021/11/11 06:58:15;;;;;;;193.47;47.50;;;2.20;1.00;4.40;101280.00;;;;5031262;28;20488;-78
2021/11/11 07:00:44;;;;;;;116.83;41.10;;;2.20;1.00;4.30;101302.00;;;;5014918;28;21006;-78
2021/11/11 07:03:15;;;;;;;375.07;77.37;;;2.20;1.00;4.20;101311.00;;;;5015401;28;20457;-78
2021/11/11 07:05:47;;;;;;;133.50;44.93;;;2.20;1.00;4.30;101306.00;;;;5014087;28;21028;-79
2021/11/11 07:08:16;;;;;;;145.17;42.90;;;2.30;1.00;4.30;101308.00;;;;5015212;28;20461;-79
2021/11/11 07:10:48;;;;;;;72.93;36.40;;;2.30;1.00;4.40;101334.00;;;;5015381;28;20989;-79
2021/11/11 07:13:18;;;;;;;181.67;51.57;;;2.30;1.00;4.40;101326.00;;;;5017749;28;20562;-78
2021/11/11 07:15:48;;;;;;;108.30;39.40;;;2.30;1.00;4.40;101333.00;;;;5017248;28;20465;-80
2021/11/11 07:18:17;;;;;;;222.87;50.77;;;2.30;1.00;4.40;101299.00;;;;5016142;28;20476;-77
2021/11/11 07:20:49;;;;;;;218.00;53.97;;;2.30;1.00;4.40;101333.00;;;;5019124;28;20471;-77
2021/11/11 07:23:20;;;;;;;207.30;47.73;;;2.30;1.00;4.40;101303.00;;;;5024955;28;20460;-80
2021/11/11 07:25:50;;;;;;;291.70;61.37;;;2.40;1.00;4.40;101343.00;;;;5043202;28;20539;-78
2021/11/11 07:28:19;;;;;;;148.47;42.67;;;2.50;1.00;4.20;101298.00;;;;5030215;28;20472;-78
2021/11/11 07:30:49;;;;;;;128.17;39.40;;;2.50;1.00;4.40;101330.00;;;;5024710;28;20530;-77
2021/11/11 07:33:18;;;;;;;371.40;64.63;;;2.60;1.00;4.50;101331.00;;;;5022522;28;20464;-78
2021/11/11 07:35:48;;;;;;;118.90;38.57;;;2.60;1.00;4.40;101352.00;;;;5020399;28;20460;-79
2021/11/11 07:38:17;;;;;;;164.00;45.80;;;2.70;1.00;4.40;101329.00;;;;5025916;28;20499;-80
2021/11/11 07:40:46;;;;;;;149.90;47.73;;;2.50;1.00;4.30;101334.00;;;;5028448;28;20518;-78
2021/11/11 07:43:15;;;;;;;78.57;35.83;;;2.50;1.00;4.40;101359.00;;;;5035525;28;20453;-80
2021/11/11 07:45:46;;;;;;;87.83;34.37;;;2.60;1.00;4.40;101372.00;;;;5062806;28;20472;-78
2021/11/11 07:48:15;;;;;;;69.27;32.23;;;2.60;1.00;4.40;101326.00;;;;5038114;28;20483;-80
2021/11/11 07:50:45;;;;;;;79.63;33.50;;;2.60;1.00;4.40;101324.00;;;;5036855;28;20540;-78
2021/11/11 07:53:15;;;;;;;51.93;26.87;;;2.70;1.00;4.40;101302.00;;;;5035840;28;21201;-79
2021/11/11 07:55:44;;;;;;;31.33;24.43;;;2.60;1.00;4.50;101348.00;;;;5031827;28;20461;-77
2021/11/11 07:58:13;;;;;;;38.50;26.07;;;2.70;1.00;4.60;101310.00;;;;5033373;28;20567;-79
2021/11/11 08:00:42;;;;;;;30.60;22.17;;;2.80;1.00;4.60;101350.00;;;;5027701;28;20498;-78
2021/11/11 08:03:12;;;;;;;74.87;26.87;;;2.80;1.00;4.60;101342.00;;;;5028729;28;20441;-76
2021/11/11 08:05:41;;;;;;;30.60;23.40;;;2.70;1.00;4.40;101325.00;;;;5033144;28;20438;-82
2021/11/11 08:08:11;;;;;;;45.20;27.13;;;2.80;1.00;4.60;101308.00;;;;5042473;28;20457;-81
2021/11/11 08:10:41;;;;;;;43.03;25.57;;;2.80;1.00;4.60;101378.00;;;;5050841;28;20471;-81
2021/11/11 08:13:10;;;;;;;30.90;24.77;;;2.90;1.00;4.70;101350.00;;;;5042729;28;20467;-81
2021/11/11 08:15:39;;;;;;;56.50;30.20;;;2.90;1.00;4.80;101308.00;;;;5049685;28;20473;-80
2021/11/11 08:18:07;;;;;;;68.23;31.40;;;2.90;1.00;4.90;101135.00;;;;5040856;28;20572;-77
2021/11/11 08:20:36;;;;;;;31.77;24.27;;;2.90;1.00;5.10;101326.00;;;;5029455;28;20495;-78
2021/11/11 08:23:05;;;;;;;37.90;27.10;;;3.00;1.00;5.20;101326.00;;;;5027659;28;20483;-77
2021/11/11 08:25:34;;;;;;;32.17;25.57;;;3.00;1.00;5.30;101282.00;;;;5035768;28;20551;-79
2021/11/11 08:28:04;;;;;;;45.30;27.03;;;3.10;1.00;5.50;101310.00;;;;5026756;28;20449;-77
2021/11/11 08:30:33;;;;;;;34.57;24.90;;;3.10;1.00;5.50;101304.00;;;;5018464;28;20480;-79
2021/11/11 08:33:01;;;;;;;68.77;29.67;;;3.30;1.00;5.60;101313.00;;;;5061716;28;20967;-78
2021/11/11 08:35:31;;;;;;;40.23;26.93;;;3.20;1.00;5.60;101283.00;;;;5033479;28;20481;-80
2021/11/11 08:38:00;;;;;;;26.60;23.70;;;3.40;1.00;5.90;101316.00;;;;5028384;28;20873;-79
2021/11/11 08:40:29;;;;;;;25.53;22.77;;;3.50;1.00;5.80;101285.00;;;;5022845;28;21104;-77
2021/11/11 08:42:59;;;;;;;30.30;24.20;;;3.60;1.00;6.10;101317.00;;;;5020512;28;20537;-78
2021/11/11 08:45:34;;;;;;;34.20;24.43;;;3.70;1.00;6.10;101329.00;;;;5028573;28;20460;-78
2021/11/11 08:48:03;;;;;;;26.63;21.70;;;3.80;1.00;6.30;101288.00;;;;5029667;28;20459;-80
2021/11/11 08:50:37;;;;;;;34.43;24.73;;;4.00;1.00;6.40;101312.00;;;;5021547;28;20476;-79
2021/11/11 08:53:12;;;;;;;32.17;24.50;;;4.00;1.00;6.40;101312.00;;;;5021634;28;20485;-79
2021/11/11 08:55:43;;;;;;;31.13;23.37;;;4.10;1.00;6.40;101332.00;;;;5037829;28;20483;-83
2021/11/11 08:58:13;;;;;;;26.20;21.10;;;4.20;1.00;6.50;101362.00;;;;5043795;28;20556;-82
2021/11/11 09:00:49;;;;;;;23.13;20.73;;;4.30;1.00;6.60;101245.00;;;;5033831;28;20465;-79
2021/11/11 09:03:18;;;;;;;22.30;19.90;;;4.50;1.00;6.60;101317.00;;;;5020197;28;20460;-80
2021/11/11 09:05:49;;;;;;;25.03;22.33;;;4.40;1.00;6.50;101342.00;;;;5021161;28;20514;-79
2021/11/11 09:08:17;;;;;;;33.63;24.70;;;4.30;1.00;6.40;101362.00;;;;5012979;28;20889;-80
2021/11/11 09:10:47;;;;;;;24.30;21.40;;;4.30;1.00;6.50;101330.00;;;;5027877;28;20532;-78
2021/11/11 09:13:35;;;;;;;29.77;22.03;;;4.40;1.00;6.60;101390.00;;;;5043600;28;20454;-80
2021/11/11 09:16:06;;;;;;;23.40;20.90;;;4.50;1.00;6.60;101362.00;;;;5026672;28;20449;-79
2021/11/11 09:18:34;;;;;;;24.90;21.23;;;4.50;1.00;6.80;101369.00;;;;5025736;28;20449;-78
2021/11/11 09:21:06;;;;;;;23.93;21.20;;;4.50;1.00;7.00;101327.00;;;;5021727;28;20486;-80
2021/11/11 09:23:36;;;;;;;25.93;23.20;;;4.70;1.00;7.00;101370.00;;;;5020705;28;20491;-79
2021/11/11 09:26:06;;;;;;;25.43;22.57;;;4.70;1.00;7.00;101361.00;;;;5022472;28;20449;-79
2021/11/11 09:28:37;;;;;;;26.10;22.63;;;4.80;1.00;6.90;101363.00;;;;5025096;28;20449;-78
2021/11/11 09:31:08;;;;;;;25.67;23.07;;;4.80;1.00;6.90;101377.00;;;;5028977;28;20576;-79
2021/11/11 09:33:37;;;;;;;27.73;23.10;;;4.80;1.00;6.90;101377.00;;;;5022479;28;20453;-80
2021/11/11 09:36:06;;;;;;;26.83;23.20;;;4.70;1.00;7.00;101290.00;;;;5031822;28;20543;-81
2021/11/11 09:38:35;;;;;;;27.50;24.60;;;4.70;1.00;7.00;101326.00;;;;5022278;28;20469;-78
2021/11/11 09:41:04;;;;;;;25.90;23.30;;;4.70;1.00;7.00;101331.00;;;;5023139;28;20477;-79
2021/11/11 09:43:38;;;;;;;25.20;21.57;;;4.80;1.00;6.90;101375.00;;;;5028740;28;20449;-78
2021/11/11 09:46:12;;;;;;;25.97;23.27;;;4.70;1.00;7.10;101357.00;;;;5030995;28;20865;-79
2021/11/11 09:48:43;;;;;;;23.23;20.83;;;4.80;1.00;7.00;101370.00;;;;5043279;28;20459;-79
2021/11/11 09:51:20;;;;;;;24.60;21.97;;;5.00;1.00;7.30;101386.00;;;;5021524;28;20478;-79
2021/11/11 09:53:56;;;;;;;23.23;20.57;;;5.30;1.00;7.60;101360.00;;;;5022004;28;20471;-78
2021/11/11 09:59:24;;;;;;;23.17;20.77;;;5.70;1.00;8.10;101278.00;;;;5023068;28;20522;-78
2021/11/11 10:01:56;;;;;;;23.10;20.80;;;5.70;1.00;7.80;101336.00;;;;5020300;28;20477;-80
2021/11/11 10:04:27;;;;;;;21.60;19.47;;;5.80;1.00;8.10;101331.00;;;;5011298;28;20483;-79
2021/11/11 10:06:56;;;;;;;24.00;21.17;;;5.80;1.00;8.10;101315.00;;;;5020023;28;21108;-82
2021/11/11 10:09:26;;;;;;;22.53;20.30;;;5.80;1.00;8.30;101392.00;;;;5018568;28;20974;-80
2021/11/11 10:11:58;;;;;;;22.80;20.50;;;5.80;1.00;8.30;101369.00;;;;5017841;28;20500;-80
2021/11/11 10:14:29;;;;;;;20.90;18.70;;;5.80;1.00;8.40;101378.00;;;;5019688;28;20543;-81
2021/11/11 10:17:02;;;;;;;19.93;17.80;;;6.00;1.00;8.60;101332.00;;;;5018745;28;20923;-80
2021/11/11 10:19:33;;;;;;;20.00;18.20;;;5.90;1.00;8.70;101383.00;;;;5027566;28;20580;-81
2021/11/11 10:22:06;;;;;;;20.93;19.03;;;6.00;1.00;8.80;101398.00;;;;5033875;28;20551;-79
2021/11/11 10:24:43;;;;;;;20.23;18.20;;;6.10;1.00;8.90;101383.00;;;;5019573;28;20460;-78
2021/11/11 10:27:24;;;;;;;20.43;18.47;;;6.10;1.00;9.00;101368.00;;;;5017039;28;20551;-79
2021/11/11 10:30:01;;;;;;;21.60;19.40;;;6.20;1.00;8.90;101381.00;;;;5018606;28;20461;-81
2021/11/11 10:32:39;;;;;;;23.77;21.43;;;6.20;1.00;8.90;101372.00;;;;5016194;28;20896;-79
2021/11/11 10:35:12;;;;;;;23.37;21.07;;;6.10;1.00;8.90;101356.00;;;;5016362;28;20451;-78
2021/11/11 10:37:48;;;;;;;26.80;22.70;;;6.20;1.00;9.00;101371.00;;;;5025534;28;20495;-78
2021/11/11 10:40:21;;;;;;;23.20;20.90;;;6.30;1.00;8.90;101347.00;;;;5008900;28;20466;-78
2021/11/11 10:42:53;;;;;;;23.20;21.00;;;6.20;1.00;8.90;101394.00;;;;5018197;28;20461;-79
2021/11/11 10:45:26;;;;;;;22.50;20.30;;;6.10;1.00;9.00;101379.00;;;;5018152;28;20950;-78
2021/11/11 10:48:00;;;;;;;24.67;22.10;;;6.20;1.00;9.20;101373.00;;;;5016195;28;20466;-78
2021/11/11 10:50:31;;;;;;;22.83;20.43;;;6.40;1.00;9.30;101363.00;;;;5015888;28;20473;-79
2021/11/11 10:53:01;;;;;;;22.83;20.50;;;6.60;1.00;9.40;101364.00;;;;5008245;28;20457;-78
2021/11/11 10:55:32;;;;;;;23.17;20.97;;;6.70;1.00;9.30;101338.00;;;;5010410;28;20981;-80
2021/11/11 10:58:05;;;;;;;23.87;21.47;;;6.60;1.00;9.40;101332.00;;;;5008205;28;20453;-78
2021/11/11 11:00:45;;;;;;;23.77;21.47;;;6.60;1.00;9.50;101379.00;;;;5007816;28;20883;-77
2021/11/11 11:03:18;;;;;;;26.13;22.20;;;6.60;1.00;9.60;101355.00;;;;5035191;28;20458;-77
2021/11/11 11:05:54;;;;;;;23.67;21.20;;;6.70;1.00;9.60;101357.00;;;;5020211;28;20476;-78
2021/11/11 11:08:27;;;;;;;25.30;22.80;;;6.80;1.00;9.60;101278.00;;;;5021112;28;20461;-79
2021/11/11 11:11:00;;;;;;;24.03;21.70;;;6.70;1.00;9.50;101341.00;;;;5016071;28;20502;-79
2021/11/11 11:13:32;;;;;;;22.93;20.90;;;6.80;1.00;9.80;101358.00;;;;5016907;28;20807;-78
2021/11/11 11:16:03;;;;;;;23.10;20.80;;;7.00;1.00;9.80;101320.00;;;;5015252;28;21516;-78
2021/11/11 11:18:36;;;;;;;29.30;22.97;;;7.20;1.00;9.90;101334.00;;;;5012075;28;20529;-76
2021/11/11 11:21:08;;;;;;;24.00;21.53;;;7.20;1.00;10.00;101319.00;;;;5016855;28;20602;-78
2021/11/11 11:23:42;;;;;;;25.50;22.70;;;7.30;1.00;10.10;101311.00;;;;5004046;28;21045;-77
2021/11/11 11:26:16;;;;;;;23.93;21.47;;;7.40;1.00;10.30;101329.00;;;;5008883;28;20813;-76
2021/11/11 11:29:02;;;;;;;25.23;22.63;;;7.60;1.00;10.40;101303.00;;;;5009136;28;20549;-77